Time;durP1;ratioP1;P1;durP2;ratioP2;P2;SDS_P1;SDS_P2;PMS_P1;PMS_P2;Temp;Humidity;BMP_temperature;BMP_pressure;BME280_temperature;BME280_humidity;BME280_pressure;Samples;Min_cycle;Max_cycle;Signal;HPM_P1;HPM_P2
2021/11/28 00:01:59;;;;;;;51.40;13.70;;;;;;;1.49;92.03;96859.69;214938;1320;24234;-78
2021/11/28 00:07:06;;;;;;;40.50;11.40;;;;;;;1.49;91.82;96840.27;215070;1321;25428;-78
2021/11/28 00:17:19;;;;;;;46.80;12.90;;;;;;;1.29;92.01;96845.44;215041;1315;22727;-78
2021/11/28 00:22:21;;;;;;;;;;;;;;;1.12;91.53;96846.66;214694;1321;22543;-77
2021/11/28 00:27:31;;;;;;;34.40;10.70;;;;;;;0.93;91.46;96863.17;214828;1316;26006;-77
2021/11/28 00:32:34;;;;;;;40.70;11.60;;;;;;;0.76;91.55;96859.58;214358;1320;25310;-77
2021/11/28 00:37:50;;;;;;;26.70;9.60;;;;;;;0.65;92.02;96866.59;214518;1322;22622;-77
2021/11/28 00:42:55;;;;;;;33.70;10.60;;;;;;;0.56;92.05;96868.36;214999;1320;22658;-78
2021/11/28 00:47:59;;;;;;;36.90;11.80;;;;;;;0.47;92.15;96858.08;215236;1316;23839;-78
2021/11/28 00:53:02;;;;;;;33.90;10.50;;;;;;;0.39;92.13;96847.71;215192;1322;22516;-78
2021/11/28 00:58:07;;;;;;;31.10;9.40;;;;;;;0.32;91.98;96853.11;215437;1321;22635;-78
2021/11/28 01:03:11;;;;;;;21.90;9.50;;;;;;;0.29;92.41;96850.27;215300;1322;22652;-78
2021/11/28 01:08:13;;;;;;;27.10;8.80;;;;;;;0.24;92.33;96859.73;215198;1321;24372;-78
2021/11/28 01:13:22;;;;;;;24.50;8.80;;;;;;;0.18;92.26;96861.58;215008;1316;22667;-78
2021/11/28 01:18:46;;;;;;;30.00;8.30;;;;;;;0.15;92.52;96845.58;214724;1322;25427;-78
2021/11/28 01:23:49;;;;;;;26.30;7.50;;;;;;;0.11;92.22;96834.58;215027;1322;25466;-78
2021/11/28 01:28:51;;;;;;;19.80;5.50;;;;;;;0.08;92.21;96839.97;215144;1317;22670;-78
2021/11/28 01:34:02;;;;;;;18.40;6.50;;;;;;;0.04;92.53;96846.25;215110;1321;25430;-77
2021/11/28 01:39:05;;;;;;;17.40;6.40;;;;;;;-0.03;92.44;96850.00;214962;1321;22576;-76
2021/11/28 01:44:07;;;;;;;18.50;6.50;;;;;;;-0.06;92.24;96843.42;215186;1313;22513;-77
2021/11/28 01:49:11;;;;;;;24.00;7.30;;;;;;;-0.09;92.26;96845.69;215018;1319;22582;-77
2021/11/28 01:54:14;;;;;;;17.00;6.20;;;;;;;-0.09;92.52;96852.91;215182;1318;24336;-78
2021/11/28 01:59:17;;;;;;;18.10;6.40;;;;;;;-0.10;92.49;96853.91;214800;1322;22659;-77
2021/11/28 02:04:25;;;;;;;17.10;6.60;;;;;;;-0.08;92.79;96837.02;214765;1321;23091;-77
2021/11/28 02:09:37;;;;;;;14.10;5.60;;;;;;;-0.08;92.68;96824.79;214881;1316;22779;-77
2021/11/28 02:14:39;;;;;;;18.80;6.90;;;;;;;-0.07;92.35;96822.43;215049;1321;22576;-77
2021/11/28 02:19:55;;;;;;;27.30;8.90;;;;;;;-0.03;92.81;96818.09;215124;1317;22628;-77
2021/11/28 02:25:17;;;;;;;26.70;8.30;;;;;;;0.05;93.44;96821.08;215000;1320;24260;-77
2021/11/28 02:30:24;;;;;;;27.10;7.50;;;;;;;0.14;94.06;96820.94;214840;1316;22772;-77
2021/11/28 02:35:30;;;;;;;30.40;9.30;;;;;;;0.18;94.00;96818.56;215048;1321;22582;-77
2021/11/28 02:40:35;;;;;;;30.60;8.20;;;;;;;0.09;92.73;96820.91;215064;1317;25921;-77
2021/11/28 02:45:38;;;;;;;35.80;10.70;;;;;;;0.12;93.43;96827.48;215359;1314;22548;-78
2021/11/28 02:50:42;;;;;;;35.50;11.00;;;;;;;0.18;93.76;96825.98;215559;1317;22762;-78
2021/11/28 02:55:51;;;;;;;34.50;10.20;;;;;;;0.23;94.13;96835.39;215450;1318;22869;-77
2021/11/28 03:00:59;;;;;;;46.00;12.30;;;;;;;0.25;93.94;96834.81;214965;1320;22630;-77
2021/11/28 03:06:02;;;;;;;37.40;12.90;;;;;;;0.29;93.54;96830.53;215477;1321;22641;-78
2021/11/28 03:11:08;;;;;;;40.50;12.00;;;;;;;0.23;92.91;96823.96;215216;1316;22554;-78
2021/11/28 03:16:14;;;;;;;51.50;13.20;;;;;;;0.18;92.50;96834.04;214935;1320;22785;-78
2021/11/28 03:21:24;;;;;;;54.70;15.50;;;;;;;0.22;92.91;96830.50;215092;1321;23089;-78
2021/11/28 03:26:28;;;;;;;51.50;14.90;;;;;;;0.31;92.99;96831.30;215776;1315;22577;-78
2021/11/28 03:31:42;;;;;;;52.90;14.50;;;;;;;0.43;93.37;96828.79;215465;1319;25389;-78
2021/11/28 03:37:23;;;;;;;66.10;14.50;;;;;;;0.57;93.48;96822.30;215150;1320;23849;-78
2021/11/28 03:42:30;;;;;;;57.00;16.40;;;;;;;0.62;93.31;96819.11;215160;1322;24227;-78
2021/11/28 03:47:48;;;;;;;47.50;16.70;;;;;;;0.67;92.95;96813.70;215515;1321;22509;-78
2021/11/28 03:52:51;;;;;;;64.00;17.70;;;;;;;0.72;93.18;96817.32;215696;1316;22912;-78
2021/11/28 03:57:53;;;;;;;48.80;17.10;;;;;;;0.75;93.33;96815.73;215298;1320;25470;-78
2021/11/28 04:02:56;;;;;;;54.40;16.60;;;;;;;0.77;93.35;96813.75;215044;1322;22720;-76
2021/11/28 04:08:04;;;;;;;66.10;19.20;;;;;;;0.86;93.84;96805.95;215271;1321;24254;-77
2021/11/28 04:13:08;;;;;;;61.90;18.10;;;;;;;0.84;92.98;96794.05;215124;1321;22726;-77
2021/11/28 04:18:12;;;;;;;60.30;18.40;;;;;;;0.78;92.62;96792.56;214594;1319;24246;-77
2021/11/28 04:23:17;;;;;;;60.10;16.50;;;;;;;0.70;92.49;96782.17;214703;1321;25921;-77
2021/11/28 04:28:20;;;;;;;60.90;17.40;;;;;;;0.66;92.22;96768.75;214936;1321;22684;-77
2021/11/28 04:33:22;;;;;;;62.50;17.10;;;;;;;0.55;91.66;96784.15;214953;1322;25236;-78
2021/11/28 04:38:25;;;;;;;48.10;15.90;;;;;;;0.45;92.02;96781.62;215477;1317;25271;-78
2021/11/28 04:43:30;;;;;;;56.00;17.10;;;;;;;0.42;92.21;96778.53;215297;1320;25339;-78
2021/11/28 04:48:33;;;;;;;47.10;14.90;;;;;;;0.35;92.05;96781.83;215179;1317;24244;-78
2021/11/28 04:53:45;;;;;;;56.30;17.10;;;;;;;0.27;91.65;96789.45;215103;1320;23854;-78
2021/11/28 04:58:47;;;;;;;64.90;16.50;;;;;;;0.19;91.57;96790.96;214997;1321;25459;-77
2021/11/28 05:03:53;;;;;;;55.30;15.80;;;;;;;0.11;91.43;96783.92;214992;1320;22590;-78
2021/11/28 05:09:12;;;;;;;66.70;18.30;;;;;;;0.04;91.59;96777.27;214767;1321;333764;-77
2021/11/28 05:14:15;;;;;;;57.70;16.80;;;;;;;-0.03;91.43;96768.39;214932;1322;24192;-77
2021/11/28 05:19:19;;;;;;;63.70;19.80;;;;;;;-0.09;91.48;96754.98;215300;1321;25408;-79
2021/11/28 05:24:33;;;;;;;59.30;18.40;;;;;;;-0.14;91.87;96741.63;215954;1320;25391;-77
2021/11/28 05:29:37;;;;;;;41.20;15.80;;;;;;;-0.21;91.61;96739.66;215734;1313;25947;-77
2021/11/28 05:34:43;;;;;;;54.20;18.60;;;;;;;-0.26;92.01;96741.87;215374;1321;22622;-78
2021/11/28 05:40:02;;;;;;;64.80;18.20;;;;;;;-0.26;92.74;96736.89;215219;1322;23975;-78
2021/11/28 05:45:06;;;;;;;44.20;15.90;;;;;;;-0.28;92.28;96738.89;215143;1320;22676;-78
2021/11/28 05:50:09;;;;;;;55.70;17.80;;;;;;;-0.28;92.41;96741.36;215269;1322;22573;-78
2021/11/28 05:55:17;;;;;;;50.90;16.10;;;;;;;-0.26;92.43;96729.89;214948;1322;23825;-77
2021/11/28 06:00:26;;;;;;;76.70;21.00;;;;;;;-0.26;92.72;96719.52;215427;1316;24282;-78
2021/11/28 06:05:41;;;;;;;65.00;21.50;;;;;;;-0.26;92.29;96724.35;215030;1316;22626;-78
2021/11/28 06:11:07;;;;;;;68.20;19.20;;;;;;;-0.27;92.14;96725.67;216474;1322;24372;-79
2021/11/28 06:16:23;;;;;;;63.40;16.90;;;;;;;-0.22;92.73;96730.72;215901;1322;22825;-79
2021/11/28 06:22:21;;;;;;;58.80;17.00;;;;;;;-0.13;92.66;96741.21;215651;1319;22789;-79
2021/11/28 06:27:33;;;;;;;79.60;19.20;;;;;;;-0.03;92.95;96737.11;216158;1322;22668;-79
2021/11/28 06:32:35;;;;;;;72.10;18.20;;;;;;;0.10;93.08;96735.86;216002;1320;24357;-79
2021/11/28 06:38:05;;;;;;;48.50;13.50;;;;;;;0.23;93.18;96723.73;216198;1319;23876;-79
2021/11/28 06:43:40;;;;;;;76.70;19.30;;;;;;;0.31;92.57;96718.21;216038;1320;25404;-79
2021/11/28 06:48:42;;;;;;;66.80;18.00;;;;;;;0.35;92.27;96726.83;216082;1321;22554;-78
2021/11/28 06:54:07;;;;;;;57.90;14.00;;;;;;;0.41;92.29;96740.82;215897;1320;22594;-78
2021/11/28 06:59:37;;;;;;;66.30;18.70;;;;;;;0.46;92.10;96736.73;215601;1316;22591;-78
2021/11/28 07:04:59;;;;;;;61.30;17.80;;;;;;;0.52;92.28;96732.73;215280;1324;25377;-78
2021/11/28 07:10:05;;;;;;;66.30;14.80;;;;;;;0.60;91.99;96738.80;215363;1318;22524;-79
2021/11/28 07:15:08;;;;;;;45.90;13.00;;;;;;;0.65;92.07;96741.99;214423;1326;22578;-78
2021/11/28 07:20:18;;;;;;;61.60;15.20;;;;;;;0.68;91.58;96749.02;214303;1322;22653;-78
2021/11/28 07:25:21;;;;;;;;;;;;;;;0.71;91.50;96738.42;214568;1325;24255;-78
2021/11/28 07:30:37;;;;;;;47.20;14.40;;;;;;;0.74;91.65;96733.02;214567;1319;25374;-78
2021/11/28 07:35:59;;;;;;;56.20;13.40;;;;;;;0.81;91.89;96723.59;214760;1322;22813;-78
2021/11/28 07:41:11;;;;;;;33.90;10.50;;;;;;;0.86;91.45;96720.65;215106;1316;24153;-78
2021/11/28 07:46:29;;;;;;;45.30;10.60;;;;;;;1.02;91.62;96730.08;215098;1322;22576;-78
2021/11/28 07:51:36;;;;;;;57.80;13.60;;;;;;;1.13;91.62;96729.13;215375;1315;25255;-78
2021/11/28 07:56:47;;;;;;;61.00;13.70;;;;;;;1.28;91.79;96753.12;215191;1320;22531;-78
2021/11/28 08:02:19;;;;;;;80.30;19.20;;;;;;;1.47;92.43;96767.83;214300;1317;22634;-78
2021/11/28 08:07:27;;;;;;;52.10;12.50;;;;;;;1.61;92.16;96764.89;214824;1321;25404;-78
2021/11/28 08:13:16;;;;;;;80.30;17.20;;;;;;;1.72;91.70;96762.14;215058;1322;24161;-78
2021/11/28 08:18:19;;;;;;;95.70;21.00;;;;;;;1.87;92.20;96765.32;214987;1322;23772;-78
2021/11/28 08:23:22;;;;;;;76.70;19.20;;;;;;;2.01;92.24;96759.57;215277;1320;22645;-77
2021/11/28 08:28:25;;;;;;;90.80;20.40;;;;;;;2.08;91.92;96746.13;214888;1321;22540;-77
2021/11/28 08:33:28;;;;;;;72.50;16.30;;;;;;;2.07;91.56;96762.87;214916;1316;22607;-77
2021/11/28 08:38:55;;;;;;;71.60;16.10;;;;;;;1.95;91.04;96770.14;214768;1321;23866;-77
2021/11/28 08:43:58;;;;;;;43.90;12.50;;;;;;;1.79;91.20;96769.10;214709;1322;22620;-79
2021/11/28 08:49:01;;;;;;;60.80;12.90;;;;;;;1.60;91.05;96771.61;214949;1320;24374;-78
2021/11/28 08:54:04;;;;;;;67.40;16.50;;;;;;;1.44;91.12;96760.26;215059;1322;22752;-78
2021/11/28 08:59:06;;;;;;;70.20;15.70;;;;;;;1.34;91.30;96760.34;215348;1319;24215;-78
2021/11/28 09:04:09;;;;;;;70.00;16.60;;;;;;;1.31;91.76;96761.37;214913;1320;22711;-78
2021/11/28 09:09:11;;;;;;;64.40;14.20;;;;;;;1.32;91.90;96759.58;214746;1316;25484;-78
2021/11/28 09:14:13;;;;;;;72.50;16.00;;;;;;;1.39;92.39;96751.48;215031;1322;24438;-78
2021/11/28 09:19:23;;;;;;;78.90;17.70;;;;;;;1.43;92.62;96752.72;215783;1322;22623;-78
2021/11/28 09:24:37;;;;;;;91.60;18.40;;;;;;;1.48;92.41;96746.61;215537;1322;23779;-78
2021/11/28 09:29:53;;;;;;;82.70;18.10;;;;;;;1.52;92.66;96721.01;215411;1320;22667;-78
2021/11/28 09:35:09;;;;;;;58.70;14.30;;;;;;;1.54;92.34;96713.86;214900;1323;22594;-79
2021/11/28 09:40:12;;;;;;;99.20;22.90;;;;;;;1.51;92.17;96697.69;215448;1321;23230;-78
2021/11/28 09:45:15;;;;;;;101.70;21.80;;;;;;;1.44;92.12;96692.65;215410;1321;22846;-78
2021/11/28 09:50:28;;;;;;;86.30;21.80;;;;;;;1.44;92.44;96685.85;215328;1322;22936;-79
2021/11/28 09:55:48;;;;;;;81.90;21.30;;;;;;;1.50;92.99;96665.09;215220;1315;22594;-79
2021/11/28 10:00:50;;;;;;;114.30;26.10;;;;;;;1.54;92.61;96652.08;215415;1321;22634;-79
2021/11/28 10:06:02;;;;;;;83.80;26.10;;;;;;;1.61;93.23;96644.08;215519;1322;22716;-79
2021/11/28 10:11:48;;;;;;;139.40;33.40;;;;;;;1.65;92.96;96635.83;215704;1317;23942;-79
2021/11/28 10:16:51;;;;;;;71.90;22.00;;;;;;;1.75;93.28;96634.67;215697;1321;22640;-79
2021/11/28 10:21:54;;;;;;;135.60;39.80;;;;;;;1.78;92.88;96627.13;216043;1313;22617;-79
2021/11/28 10:27:08;;;;;;;101.10;35.80;;;;;;;1.81;92.89;96622.52;216029;1319;22718;-79
2021/11/28 10:32:14;;;;;;;157.70;42.80;;;;;;;1.90;93.32;96615.62;215473;1322;24208;-79
2021/11/28 10:37:19;;;;;;;113.80;35.80;;;;;;;2.01;93.51;96611.66;215630;1322;23719;-79
2021/11/28 10:42:34;;;;;;;134.30;40.80;;;;;;;2.09;93.33;96606.34;215587;1322;22588;-79
2021/11/28 10:47:38;;;;;;;137.70;39.80;;;;;;;2.12;93.41;96595.29;215599;1321;22569;-78
2021/11/28 10:52:45;;;;;;;90.20;28.90;;;;;;;2.16;93.33;96584.37;215652;1322;22576;-78
2021/11/28 10:58:14;;;;;;;66.60;26.10;;;;;;;2.16;92.98;96579.72;215314;1320;22746;-78
2021/11/28 11:03:19;;;;;;;124.00;40.40;;;;;;;2.13;92.67;96573.98;215369;1319;22561;-78
2021/11/28 11:08:25;;;;;;;119.60;41.70;;;;;;;2.12;92.84;96562.12;215228;1313;22497;-78
2021/11/28 11:13:28;;;;;;;138.60;45.30;;;;;;;2.14;93.00;96553.59;214881;1322;24394;-78
2021/11/28 11:18:30;;;;;;;119.80;38.20;;;;;;;2.21;93.38;96542.02;214990;1320;22796;-78
2021/11/28 11:23:40;;;;;;;148.30;45.20;;;;;;;2.26;93.39;96532.86;214817;1319;22904;-78
2021/11/28 11:29:06;;;;;;;125.50;40.50;;;;;;;2.27;93.41;96527.23;214932;1313;22729;-78
2021/11/28 11:34:23;;;;;;;142.00;45.00;;;;;;;2.28;93.30;96517.45;215192;1321;22600;-78
2021/11/28 11:39:28;;;;;;;132.00;41.70;;;;;;;2.24;93.06;96511.27;215045;1321;25309;-78
2021/11/28 11:44:31;;;;;;;75.00;29.30;;;;;;;2.19;93.21;96496.08;215560;1322;23330;-77
2021/11/28 11:49:34;;;;;;;127.30;39.20;;;;;;;2.21;93.32;96491.19;214882;1320;24216;-78
2021/11/28 11:54:47;;;;;;;70.20;25.60;;;;;;;2.16;93.28;96482.77;215106;1321;22651;-78
2021/11/28 12:00:30;;;;;;;87.60;30.60;;;;;;;2.12;93.24;96475.95;214897;1322;22744;-78
2021/11/28 12:05:35;;;;;;;110.10;33.70;;;;;;;2.09;93.48;96469.90;213787;1329;22672;-78
2021/11/28 12:10:57;;;;;;;86.40;28.70;;;;;;;2.08;93.63;96466.84;214695;1322;23558;-78
2021/11/28 12:16:14;;;;;;;90.80;31.50;;;;;;;2.10;93.97;96461.33;215101;1321;22589;-78
2021/11/28 12:21:38;;;;;;;100.30;27.50;;;;;;;2.16;94.36;96458.36;214732;1317;23414;-77
2021/11/28 12:26:52;;;;;;;105.40;31.90;;;;;;;2.19;94.19;96447.91;214679;1318;22755;-78
2021/11/28 12:31:57;;;;;;;97.40;30.90;;;;;;;2.24;94.40;96446.81;214987;1317;25437;-78
2021/11/28 12:36:59;;;;;;;93.20;33.60;;;;;;;2.28;94.57;96451.63;215043;1319;23289;-77
2021/11/28 12:42:05;;;;;;;118.80;38.60;;;;;;;2.35;95.03;96460.48;215178;1321;22993;-76
2021/11/28 12:47:10;;;;;;;105.70;34.60;;;;;;;2.37;94.92;96464.52;215116;1320;22669;-77
2021/11/28 12:52:15;;;;;;;98.30;33.70;;;;;;;2.32;94.78;96466.65;215046;1313;22903;-77
2021/11/28 12:57:20;;;;;;;86.40;30.60;;;;;;;2.35;95.32;96456.60;214799;1318;23822;-76
2021/11/28 13:02:43;;;;;;;73.20;28.30;;;;;;;2.37;95.32;96451.52;214857;1319;25959;-76
2021/11/28 13:07:45;;;;;;;107.90;33.90;;;;;;;2.35;95.01;96461.30;214846;1321;22512;-77
2021/11/28 13:13:27;;;;;;;80.00;26.20;;;;;;;2.35;95.25;96470.17;214895;1310;104914;-77
2021/11/28 13:18:31;;;;;;;101.60;34.50;;;;;;;2.32;94.78;96474.84;214496;1318;22660;-77
2021/11/28 13:24:01;;;;;;;87.40;27.60;;;;;;;2.28;94.57;96465.39;214549;1317;22750;-77
2021/11/28 13:29:25;;;;;;;66.10;22.60;;;;;;;2.25;94.63;96464.52;214691;1318;24187;-77
2021/11/28 13:34:32;;;;;;;95.70;28.90;;;;;;;2.18;94.52;96459.79;214906;1321;22587;-76
2021/11/28 13:39:35;;;;;;;100.30;33.60;;;;;;;2.17;94.91;96456.02;215302;1321;23406;-76
2021/11/28 13:44:37;;;;;;;91.70;31.30;;;;;;;2.11;94.73;96452.59;215002;1321;22676;-75
2021/11/28 13:49:50;;;;;;;77.10;24.50;;;;;;;2.06;94.73;96449.66;215114;1316;24343;-76
2021/11/28 13:55:12;;;;;;;71.20;24.00;;;;;;;2.00;94.85;96453.36;214756;1322;22647;-76
2021/11/28 14:00:14;;;;;;;65.80;23.70;;;;;;;1.94;94.72;96438.55;214846;1318;23713;-77
2021/11/28 14:05:19;;;;;;;67.20;21.50;;;;;;;1.87;94.71;96441.03;215119;1313;22535;-76
2021/11/28 14:10:27;;;;;;;71.40;21.30;;;;;;;1.79;94.49;96449.30;214980;1313;24205;-76
2021/11/28 14:15:42;;;;;;;63.90;19.20;;;;;;;1.80;95.24;96441.83;214972;1321;22730;-77
2021/11/28 14:21:06;;;;;;;58.60;19.50;;;;;;;1.77;94.85;96437.94;214812;1319;24279;-76
2021/11/28 14:26:09;;;;;;;64.20;22.10;;;;;;;1.65;94.16;96427.17;215028;1316;22516;-76
2021/11/28 14:31:16;;;;;;;64.00;16.90;;;;;;;1.58;94.67;96390.02;215144;1319;24397;-76
2021/11/28 14:36:31;;;;;;;68.20;22.70;;;;;;;1.52;94.41;96366.94;216579;1322;22743;-76
2021/11/28 14:41:49;;;;;;;69.50;20.20;;;;;;;1.46;94.36;96360.55;215816;1320;24299;-75
2021/11/28 14:46:52;;;;;;;69.80;21.70;;;;;;;1.44;94.94;96374.63;214781;1320;22647;-75
2021/11/28 14:52:01;;;;;;;85.50;23.90;;;;;;;1.49;95.21;96383.46;215575;1321;22510;-75
2021/11/28 14:57:06;;;;;;;97.40;27.00;;;;;;;1.55;95.52;96397.14;214900;1313;25398;-76
2021/11/28 15:02:11;;;;;;;79.80;24.20;;;;;;;1.69;96.01;96384.26;215249;1313;22883;-76
2021/11/28 15:07:36;;;;;;;67.80;20.60;;;;;;;1.75;95.47;96376.60;215070;1317;22645;-76
2021/11/28 15:12:40;;;;;;;64.40;20.80;;;;;;;1.80;95.30;96381.42;215288;1322;23401;-77
2021/11/28 15:17:43;;;;;;;76.80;22.70;;;;;;;1.81;94.88;96407.55;215036;1320;22535;-76
2021/11/28 15:23:00;;;;;;;92.30;27.80;;;;;;;1.86;95.41;96438.47;215075;1319;22595;-76
2021/11/28 15:28:23;;;;;;;81.00;23.30;;;;;;;1.89;95.10;96454.73;215075;1316;26073;-76
2021/11/28 15:33:25;;;;;;;76.20;21.80;;;;;;;1.86;94.94;96459.27;214806;1322;23859;-76
2021/11/28 15:38:27;;;;;;;61.70;20.20;;;;;;;1.82;94.80;96453.26;215084;1320;24221;-77
2021/11/28 15:43:29;;;;;;;75.40;23.70;;;;;;;1.74;94.55;96437.02;215015;1317;24173;-76
2021/11/28 15:48:32;;;;;;;65.30;18.40;;;;;;;1.69;94.52;96425.21;214878;1321;22585;-77
2021/11/28 15:53:33;;;;;;;57.10;19.30;;;;;;;1.63;94.48;96426.15;215256;1317;24200;-77
2021/11/28 15:58:36;;;;;;;44.10;15.30;;;;;;;1.52;94.03;96419.55;214970;1317;23962;-76
2021/11/28 16:03:39;;;;;;;78.10;21.30;;;;;;;1.46;94.19;96426.95;215072;1320;24286;-76
2021/11/28 16:08:41;;;;;;;73.40;22.70;;;;;;;1.42;94.44;96436.91;215289;1322;24324;-76
2021/11/28 16:13:44;;;;;;;67.90;21.00;;;;;;;1.44;94.75;96441.54;215332;1321;24343;-77
2021/11/28 16:18:47;;;;;;;72.80;23.40;;;;;;;1.42;94.47;96443.91;215798;1320;22882;-76
2021/11/28 16:23:49;;;;;;;81.70;24.00;;;;;;;1.38;94.40;96452.80;216121;1317;25316;-75
2021/11/28 16:28:51;;;;;;;64.90;19.90;;;;;;;1.38;94.63;96458.34;215995;1322;22576;-75
2021/11/28 16:33:53;;;;;;;51.50;15.80;;;;;;;1.38;95.00;96448.48;216393;1320;26021;-76
2021/11/28 16:38:58;;;;;;;50.30;15.00;;;;;;;1.37;94.78;96435.18;216419;1317;22802;-75
2021/11/28 16:44:02;;;;;;;42.70;12.50;;;;;;;1.33;94.69;96413.97;216197;1316;22529;-76
2021/11/28 16:49:18;;;;;;;36.30;10.90;;;;;;;1.25;94.48;96417.41;216830;1320;22602;-75
2021/11/28 16:54:26;;;;;;;37.60;12.90;;;;;;;1.16;94.44;96436.96;216792;1316;22637;-76
2021/11/28 16:59:28;;;;;;;53.00;15.30;;;;;;;1.10;94.42;96439.77;216871;1319;22651;-76
2021/11/28 17:04:30;;;;;;;53.00;15.90;;;;;;;1.08;94.46;96447.66;216595;1320;24218;-76
2021/11/28 17:09:32;;;;;;;43.90;14.40;;;;;;;1.07;94.98;96451.09;216632;1321;23646;-76
2021/11/28 17:14:34;;;;;;;39.30;14.10;;;;;;;1.04;94.53;96447.60;216259;1319;24326;-75
2021/11/28 17:19:36;;;;;;;47.80;15.10;;;;;;;1.01;94.49;96426.33;216009;1315;23002;-76
2021/11/28 17:24:43;;;;;;;46.00;12.80;;;;;;;0.98;94.57;96425.27;215817;1316;22520;-76
2021/11/28 17:29:46;;;;;;;42.60;14.00;;;;;;;0.91;94.16;96421.19;215942;1317;22677;-76
2021/11/28 17:34:49;;;;;;;34.40;12.30;;;;;;;0.87;94.64;96431.25;215591;1321;22607;-76
2021/11/28 17:39:51;;;;;;;35.50;11.20;;;;;;;0.85;94.42;96413.77;215852;1320;22601;-75
2021/11/28 17:44:53;;;;;;;42.10;13.90;;;;;;;0.84;94.67;96408.73;215356;1319;24192;-76
2021/11/28 17:49:55;;;;;;;44.80;14.40;;;;;;;0.85;94.96;96425.80;215677;1321;22656;-75
2021/11/28 17:54:58;;;;;;;51.70;16.90;;;;;;;0.85;95.13;96434.91;215260;1320;22632;-75
2021/11/28 18:00:00;;;;;;;56.60;17.30;;;;;;;0.91;95.25;96437.70;215408;1320;22515;-76
2021/11/28 18:05:03;;;;;;;62.80;18.30;;;;;;;0.96;95.46;96438.30;215554;1317;22504;-76
2021/11/28 18:10:07;;;;;;;58.80;19.50;;;;;;;1.00;95.07;96440.95;215274;1316;23500;-76
2021/11/28 18:15:11;;;;;;;47.10;14.60;;;;;;;0.99;95.27;96437.43;215412;1320;22581;-76
2021/11/28 18:20:15;;;;;;;67.30;19.00;;;;;;;0.91;94.48;96435.75;215528;1316;22748;-77
2021/11/28 18:25:17;;;;;;;52.90;15.90;;;;;;;0.84;94.65;96450.59;215345;1316;23027;-77
2021/11/28 18:30:31;;;;;;;52.50;16.00;;;;;;;0.79;94.69;96451.59;215315;1320;22591;-77
2021/11/28 18:35:35;;;;;;;58.80;17.30;;;;;;;0.72;94.70;96446.23;215122;1320;22651;-76
2021/11/28 18:40:37;;;;;;;46.60;15.90;;;;;;;0.61;94.37;96441.05;215085;1317;22769;-76
2021/11/28 18:45:52;;;;;;;57.80;17.70;;;;;;;0.52;94.34;96446.52;215222;1321;25367;-77
2021/11/28 18:51:16;;;;;;;53.60;17.20;;;;;;;0.48;94.70;96452.36;215230;1322;24072;-77
2021/11/28 18:56:18;;;;;;;42.40;15.10;;;;;;;0.44;95.11;96448.23;214936;1319;23858;-76
2021/11/28 19:01:22;;;;;;;65.20;18.00;;;;;;;0.44;94.94;96465.09;215148;1317;24276;-77
2021/11/28 19:06:24;;;;;;;43.40;14.20;;;;;;;0.42;95.13;96477.27;215375;1322;24215;-76
2021/11/28 19:11:28;;;;;;;51.70;13.10;;;;;;;0.40;95.21;96486.16;215109;1319;25931;-77
2021/11/28 19:16:30;;;;;;;45.60;13.60;;;;;;;0.37;95.26;96491.34;215165;1317;22662;-76
2021/11/28 19:21:34;;;;;;;47.00;14.50;;;;;;;0.37;95.40;96482.48;214948;1322;25417;-76
2021/11/28 19:26:36;;;;;;;42.80;12.90;;;;;;;0.37;95.28;96489.77;215471;1322;23046;-76
2021/11/28 19:31:40;;;;;;;46.40;13.60;;;;;;;0.40;95.47;96477.56;215255;1320;24378;-78
2021/11/28 19:36:42;;;;;;;60.90;14.90;;;;;;;0.43;95.51;96468.10;214873;1321;22685;-77
2021/11/28 19:41:45;;;;;;;42.00;12.60;;;;;;;0.46;95.30;96474.93;214939;1319;25434;-77
2021/11/28 19:46:49;;;;;;;39.00;11.20;;;;;;;0.47;95.24;96483.30;215046;1321;24240;-77
2021/11/28 19:51:51;;;;;;;44.10;12.00;;;;;;;0.48;95.29;96483.23;215008;1317;25419;-77
2021/11/28 19:56:54;;;;;;;42.00;10.80;;;;;;;0.45;95.23;96481.20;214925;1321;24532;-77
2021/11/28 20:01:56;;;;;;;38.20;10.70;;;;;;;0.42;95.29;96490.55;214924;1316;23974;-77
2021/11/28 20:07:00;;;;;;;40.20;11.00;;;;;;;0.40;95.20;96506.33;215247;1320;24984;-76
2021/11/28 20:12:03;;;;;;;34.20;10.00;;;;;;;0.40;95.43;96506.96;214948;1315;22508;-76
2021/11/28 20:17:05;;;;;;;34.30;9.50;;;;;;;0.40;95.25;96494.63;215371;1319;22582;-77
2021/11/28 20:22:07;;;;;;;32.60;10.00;;;;;;;0.38;95.29;96498.14;215715;1322;22513;-77
2021/11/28 20:27:10;;;;;;;41.30;11.30;;;;;;;0.37;95.09;96499.52;215695;1316;22643;-76
2021/11/28 20:32:12;;;;;;;38.40;11.50;;;;;;;0.42;95.90;96505.36;215142;1322;23824;-77
2021/11/28 20:37:14;;;;;;;38.30;11.00;;;;;;;0.43;95.57;96507.67;215200;1321;22725;-77
2021/11/28 20:42:16;;;;;;;33.60;10.40;;;;;;;0.43;95.33;96496.40;215109;1316;22510;-77
2021/11/28 20:47:39;;;;;;;30.70;9.40;;;;;;;0.39;95.52;96521.82;215219;1319;23972;-77
2021/11/28 20:52:42;;;;;;;27.90;8.40;;;;;;;0.38;95.42;96537.74;215199;1322;22654;-77
2021/11/28 20:57:45;;;;;;;29.30;10.00;;;;;;;0.35;95.40;96531.08;215575;1320;25410;-77
2021/11/28 21:02:52;;;;;;;26.00;9.40;;;;;;;0.36;95.39;96544.66;215322;1316;22644;-77
2021/11/28 21:07:59;;;;;;;31.20;8.70;;;;;;;0.41;95.70;96549.57;215575;1321;22807;-78
2021/11/28 21:13:02;;;;;;;36.30;10.60;;;;;;;0.43;95.49;96553.92;215607;1319;180475;-78
2021/11/28 21:18:06;;;;;;;46.10;12.90;;;;;;;0.41;95.52;96550.89;215684;1320;25959;-77
2021/11/28 21:23:08;;;;;;;43.00;12.10;;;;;;;0.47;95.75;96553.73;215232;1320;25217;-76
2021/11/28 21:28:13;;;;;;;38.00;10.20;;;;;;;0.50;96.05;96551.27;214735;1316;22663;-76
2021/11/28 21:33:17;;;;;;;50.80;11.50;;;;;;;0.48;95.46;96559.98;214912;1320;22603;-76
2021/11/28 21:38:19;;;;;;;39.80;11.80;;;;;;;0.47;95.49;96562.69;215232;1321;25307;-76
2021/11/28 21:43:22;;;;;;;33.90;10.80;;;;;;;0.42;95.36;96572.11;215295;1320;23086;-76
2021/11/28 21:48:27;;;;;;;33.30;11.20;;;;;;;0.38;95.56;96550.80;215196;1316;22647;-76
2021/11/28 21:53:29;;;;;;;35.80;11.10;;;;;;;0.37;95.52;96543.13;215296;1321;22579;-76
2021/11/28 21:58:32;;;;;;;25.00;8.10;;;;;;;0.34;95.61;96535.83;215043;1321;22611;-76
2021/11/28 22:03:35;;;;;;;21.40;7.50;;;;;;;0.36;95.88;96522.59;215938;1317;22611;-76
2021/11/28 22:08:40;;;;;;;26.80;8.30;;;;;;;0.32;95.54;96524.68;215528;1322;25379;-75
2021/11/28 22:13:42;;;;;;;32.80;8.30;;;;;;;0.29;95.40;96523.90;215542;1320;24190;-76
2021/11/28 22:18:44;;;;;;;20.00;6.50;;;;;;;0.29;95.79;96530.86;215208;1320;22543;-75
2021/11/28 22:23:46;;;;;;;21.90;6.90;;;;;;;0.29;95.90;96534.61;215294;1319;24302;-76
2021/11/28 22:28:49;;;;;;;29.40;8.00;;;;;;;0.30;96.13;96534.60;215225;1317;23287;-76
2021/11/28 22:33:51;;;;;;;24.60;8.00;;;;;;;0.31;95.76;96523.42;215084;1321;25558;-76
2021/11/28 22:38:53;;;;;;;22.80;6.60;;;;;;;0.28;95.87;96525.28;215203;1318;23084;-77
2021/11/28 22:43:56;;;;;;;18.80;5.60;;;;;;;0.28;96.02;96531.14;215223;1322;25427;-77
2021/11/28 22:48:58;;;;;;;25.80;7.80;;;;;;;0.30;96.08;96529.75;215285;1316;22662;-77
2021/11/28 22:54:00;;;;;;;20.70;7.50;;;;;;;0.33;96.36;96532.36;215162;1321;22608;-77
2021/11/28 22:59:03;;;;;;;25.30;8.60;;;;;;;0.32;96.12;96520.94;215226;1320;22640;-77
2021/11/28 23:04:09;;;;;;;23.50;7.70;;;;;;;0.30;96.12;96518.32;214907;1322;22525;-77
2021/11/28 23:09:16;;;;;;;;;;;;;;;0.27;95.85;96519.03;215062;1322;24220;-77
2021/11/28 23:14:19;;;;;;;21.50;7.40;;;;;;;0.24;96.00;96525.23;215299;1321;22859;-77
2021/11/28 23:19:21;;;;;;;24.20;8.20;;;;;;;0.23;96.18;96527.43;215020;1315;22589;-77
2021/11/28 23:24:30;;;;;;;18.00;7.10;;;;;;;0.25;96.32;96531.38;215285;1318;22631;-77
2021/11/28 23:29:32;;;;;;;18.90;6.20;;;;;;;0.24;96.08;96535.65;215021;1316;22693;-77
2021/11/28 23:34:34;;;;;;;17.40;6.60;;;;;;;0.24;96.01;96531.60;214785;1322;24424;-77
2021/11/28 23:39:37;;;;;;;20.00;6.90;;;;;;;0.22;96.03;96535.09;214965;1322;22651;-76